createdAt,value
2018-07-25T00:11:51.779Z,21.30
2018-07-25T00:14:20.871Z,21.20
2018-07-25T00:21:46.403Z,21.50
2018-07-25T00:24:15.246Z,20.60
2018-07-25T00:26:43.982Z,20.70
2018-07-25T00:36:56.753Z,20.60
2018-07-25T00:56:44.678Z,20.70
2018-07-25T01:01:42.578Z,21.00
2018-07-25T01:06:39.737Z,20.30
2018-07-25T01:11:38.262Z,20.50
2018-07-25T01:16:35.828Z,20.80
2018-07-25T01:19:04.577Z,20.40
2018-07-25T01:21:33.713Z,21.20
2018-07-25T01:26:30.858Z,20.50
2018-07-25T01:28:59.666Z,20.40
2018-07-25T01:41:21.900Z,20.70
2018-07-25T01:43:50.679Z,20.20
2018-07-25T01:48:48.093Z,20.60
2018-07-25T01:51:16.848Z,20.10
2018-07-25T01:56:14.016Z,19.70
2018-07-25T02:03:40.980Z,19.20
2018-07-25T02:08:38.185Z,20.40
2018-07-25T02:16:03.813Z,19.80
2018-07-25T02:18:32.620Z,20.30
2018-07-25T02:25:58.237Z,19.80
2018-07-25T02:28:26.983Z,20.00
2018-07-25T02:30:56.048Z,19.40
2018-07-25T02:33:29.999Z,19.70
2018-07-25T02:35:58.768Z,19.90
2018-07-25T02:43:24.320Z,20.50
2018-07-25T03:00:43.612Z,19.70
2018-07-25T03:08:09.189Z,19.40
2018-07-25T03:18:03.254Z,19.50
2018-07-25T03:20:32.478Z,19.10
2018-07-25T03:23:01.294Z,19.50
2018-07-25T03:25:30.039Z,19.60
2018-07-25T03:27:57.941Z,19.70
2018-07-25T03:35:23.492Z,18.90
2018-07-25T03:40:20.638Z,19.70
2018-07-25T03:45:18.359Z,19.20
2018-07-25T03:50:15.532Z,19.50
2018-07-25T03:55:13.144Z,19.70
2018-07-25T04:02:39.116Z,19.00
2018-07-25T04:15:02.488Z,19.90
2018-07-25T04:32:42.445Z,21.30
2018-07-25T04:35:13.303Z,21.30
2018-07-25T04:37:42.597Z,21.40
2018-07-25T04:45:10.183Z,22.30
2018-07-25T04:47:39.461Z,21.60
2018-07-25T04:50:08.520Z,22.00
2018-07-25T04:57:34.493Z,22.10
2018-07-25T05:12:25.212Z,22.40
2018-07-25T05:22:19.261Z,22.00
2018-07-25T05:39:38.387Z,23.40
2018-07-25T05:42:07.324Z,24.00
2018-07-25T05:44:36.033Z,23.40
2018-07-25T05:52:01.630Z,24.10
2018-07-25T05:54:30.408Z,24.20
2018-07-25T06:01:55.898Z,24.60
2018-07-25T06:04:25.061Z,25.70
2018-07-25T06:09:22.201Z,25.80
2018-07-25T06:11:51.029Z,26.30
2018-07-25T06:14:19.921Z,25.90
2018-07-25T06:24:13.779Z,26.90
2018-07-25T06:26:42.536Z,25.90
2018-07-25T06:34:08.129Z,26.20
2018-07-25T06:39:09.543Z,26.70
2018-07-25T06:41:38.353Z,26.00
2018-07-25T06:44:07.500Z,25.70
2018-07-25T06:46:36.310Z,25.80
2018-07-25T06:49:05.692Z,25.70
2018-07-25T06:51:34.589Z,25.60
2018-07-25T07:01:29.550Z,26.30
2018-07-25T07:03:58.383Z,26.70
2018-07-25T07:13:52.425Z,27.20
2018-07-25T07:16:21.202Z,27.40
2018-07-25T07:21:18.407Z,28.30
2018-07-25T07:26:15.518Z,28.20
2018-07-25T07:33:41.128Z,28.20
2018-07-25T07:38:38.356Z,28.80
2018-07-25T07:46:04.119Z,30.30
2018-07-25T07:48:32.912Z,29.50
2018-07-25T07:55:58.644Z,29.80
2018-07-25T08:10:49.646Z,31.50
2018-07-25T08:13:18.417Z,30.60
2018-07-25T08:18:15.553Z,30.90
2018-07-25T08:20:44.399Z,31.30
2018-07-25T08:25:41.616Z,32.10
2018-07-25T08:35:35.586Z,31.20
2018-07-25T08:38:04.408Z,31.10
2018-07-25T08:43:01.523Z,31.40
2018-07-25T08:45:30.300Z,31.90
2018-07-25T08:50:27.501Z,32.40
2018-07-25T08:52:56.387Z,32.10
2018-07-25T08:55:25.087Z,32.20
2018-07-25T09:10:16.282Z,34.20
2018-07-25T09:12:45.080Z,33.60
2018-07-25T09:20:10.604Z,34.60
2018-07-25T09:27:36.590Z,34.10
2018-07-25T09:30:05.895Z,33.60
2018-07-25T09:32:34.656Z,34.20
2018-07-25T09:35:03.509Z,34.60
2018-07-25T09:40:00.670Z,34.40
2018-07-25T09:47:26.435Z,34.20
2018-07-25T09:49:55.276Z,35.00
2018-07-25T09:54:52.538Z,34.40
2018-07-25T09:57:21.354Z,35.10
2018-07-25T09:59:50.140Z,34.80
2018-07-25T10:14:41.241Z,35.70
2018-07-25T10:22:06.904Z,35.60
2018-07-25T10:29:32.610Z,35.90
2018-07-25T10:39:26.705Z,36.50
2018-07-25T10:51:49.455Z,34.70
2018-07-25T10:54:18.330Z,33.80
2018-07-25T10:59:15.686Z,33.80
2018-07-25T11:04:12.841Z,35.10
2018-07-25T11:11:39.212Z,35.80
2018-07-25T11:14:08.026Z,34.90
2018-07-25T11:21:34.203Z,35.00
2018-07-25T11:26:44.881Z,35.30
2018-07-25T11:29:14.184Z,36.60
2018-07-25T11:36:45.072Z,38.00
2018-07-25T11:41:42.749Z,37.90
2018-07-25T11:44:11.664Z,37.20
2018-07-25T11:46:40.672Z,38.80
2018-07-25T11:54:06.334Z,38.50
2018-07-25T11:59:03.805Z,36.20
2018-07-25T12:01:32.606Z,37.70
2018-07-25T12:09:02.621Z,36.80
2018-07-25T12:13:59.877Z,37.00
2018-07-25T12:16:28.624Z,37.40
2018-07-25T12:18:57.911Z,36.90
2018-07-25T12:21:26.687Z,35.80
2018-07-25T12:23:55.793Z,37.10
2018-07-25T12:31:21.414Z,36.80
2018-07-25T12:41:15.673Z,36.10
2018-07-25T12:43:44.492Z,35.80
2018-07-25T12:46:13.345Z,37.00
2018-07-25T12:48:42.212Z,37.60
2018-07-25T12:53:40.517Z,37.00
2018-07-25T12:56:09.372Z,37.00
2018-07-25T12:58:38.194Z,36.50
2018-07-25T13:01:07.063Z,35.90
2018-07-25T13:18:26.444Z,35.50
2018-07-25T13:20:55.291Z,35.10
2018-07-25T13:23:24.075Z,35.60
2018-07-25T13:28:21.393Z,36.40
2018-07-25T13:38:15.419Z,36.90
2018-07-25T13:40:44.269Z,37.50
2018-07-25T13:43:13.100Z,38.40
2018-07-25T13:45:42.205Z,37.00
2018-07-25T13:48:11.373Z,38.30
2018-07-25T13:50:40.251Z,38.70
2018-07-25T14:00:34.692Z,37.60
2018-07-25T14:03:03.557Z,37.90
2018-07-25T14:05:32.391Z,38.10
2018-07-25T14:08:01.742Z,36.40
2018-07-25T14:10:30.515Z,37.80
2018-07-25T14:12:59.354Z,38.50
2018-07-25T14:15:28.100Z,38.40
2018-07-25T14:17:58.673Z,37.70
2018-07-25T14:20:27.434Z,37.30
2018-07-25T14:25:24.710Z,38.10
2018-07-25T14:30:22.116Z,37.80
2018-07-25T14:35:19.543Z,36.90
2018-07-25T14:40:16.876Z,36.70
2018-07-25T14:47:42.471Z,38.70
2018-07-25T14:50:11.375Z,38.50
2018-07-25T14:52:40.159Z,38.20
2018-07-25T15:10:00.255Z,39.60
2018-07-25T15:15:02.783Z,38.80
2018-07-25T15:20:00.726Z,41.30
2018-07-25T15:29:54.987Z,41.20
2018-07-25T15:39:49.638Z,40.10
2018-07-25T15:42:18.488Z,39.10
2018-07-25T15:44:47.280Z,40.30
2018-07-25T15:52:13.012Z,39.20
2018-07-25T15:54:41.836Z,39.80
2018-07-25T15:59:39.049Z,40.10
2018-07-25T16:09:34.104Z,38.30
2018-07-25T16:19:28.174Z,35.90
2018-07-25T16:39:18.469Z,31.90
2018-07-25T16:41:48.503Z,31.60
2018-07-25T16:49:14.117Z,32.10
2018-07-25T16:51:42.927Z,32.40
2018-07-25T16:56:40.238Z,32.00
2018-07-25T17:06:34.359Z,32.00
2018-07-25T17:13:59.999Z,31.80
2018-07-25T17:26:22.539Z,30.70
2018-07-25T17:36:17.666Z,30.80
2018-07-25T17:41:15.326Z,29.40
2018-07-25T17:43:44.261Z,29.80
2018-07-25T17:46:13.157Z,30.50
2018-07-25T17:48:42.021Z,29.30
2018-07-25T17:51:10.795Z,30.60
2018-07-25T17:56:08.031Z,29.40
2018-07-25T18:03:34.217Z,30.60
2018-07-25T18:08:31.302Z,29.90
2018-07-25T18:11:00.091Z,29.10
2018-07-25T18:16:02.487Z,29.80
2018-07-25T18:20:59.924Z,29.30
2018-07-25T18:43:17.041Z,29.30
2018-07-25T18:45:46.022Z,29.00
2018-07-25T18:48:14.896Z,28.40
2018-07-25T18:50:43.663Z,28.90
2018-07-25T18:55:40.885Z,28.50
2018-07-25T18:58:09.674Z,29.30
2018-07-25T19:08:03.630Z,28.10
2018-07-25T19:20:26.427Z,28.40
2018-07-25T19:42:43.240Z,28.40
2018-07-25T19:50:08.834Z,28.10
2018-07-25T20:02:32.050Z,28.20
2018-07-25T20:09:58.061Z,27.20
2018-07-25T20:24:54.216Z,27.10
2018-07-25T20:27:23.063Z,26.70
2018-07-25T20:37:17.133Z,26.70
2018-07-25T20:39:45.910Z,26.70
2018-07-25T20:49:40.691Z,26.80
2018-07-25T21:02:03.173Z,25.80
2018-07-25T21:11:57.190Z,25.80
2018-07-25T21:14:25.988Z,25.60
2018-07-25T21:29:16.717Z,25.50
2018-07-25T21:31:45.510Z,25.50
2018-07-25T21:34:14.311Z,26.40
2018-07-25T21:36:43.057Z,25.70
2018-07-25T21:44:15.261Z,25.90
2018-07-25T21:46:44.083Z,26.30
2018-07-25T21:56:38.206Z,25.90
2018-07-25T22:01:35.472Z,25.70
2018-07-25T22:04:12.643Z,26.10
2018-07-25T22:09:11.523Z,25.20
2018-07-25T22:11:40.890Z,26.40
2018-07-25T22:24:03.258Z,25.80
2018-07-25T22:41:22.337Z,24.80
2018-07-25T22:46:19.581Z,25.80
2018-07-25T22:48:48.382Z,25.70
2018-07-25T22:51:17.212Z,25.30
2018-07-25T23:01:11.202Z,25.60
2018-07-25T23:03:40.008Z,24.60
2018-07-25T23:06:08.764Z,25.00
2018-07-25T23:13:37.805Z,25.20
2018-07-25T23:16:06.580Z,24.50
2018-07-25T23:26:06.082Z,24.60
2018-07-25T23:38:28.767Z,24.60
2018-07-25T23:40:57.579Z,24.70
2018-07-25T23:50:52.526Z,24.30
2018-07-25T23:53:21.283Z,24.10
